Terminal Aerodrome Forecast
Issued by NWS

Home | Current Version | Previous Version | Text Only | Print | Product List | Glossary Off
Versions: 1 2 3 4 5 6 7 8 9 10 11 12 13 14

120
FTUS43 KMPX 101720
TAFAXN
TAF
KAXN 101720Z 1018/1118 10007KT P6SM BKN050
     FM110400 VRB02KT P6SM SCT060 BKN200
     FM111500 18003KT P6SM OVC100=

USA.gov is the U.S. government's official web portal to all federal, state and local government web resources and services.